Time;durP1;ratioP1;P1;durP2;ratioP2;P2;SDS_P1;SDS_P2;PMS_P1;PMS_P2;Temp;Humidity;BMP_temperature;BMP_pressure;BME280_temperature;BME280_humidity;BME280_pressure;Samples;Min_cycle;Max_cycle;Signal;HPM_P1;HPM_P2
2021/10/10 00:01:42;;;;;;;11.33;7.50;;;5.10;99.90;;;;;;5017318;28;20670;-91
2021/10/10 00:04:21;;;;;;;12.40;6.93;;;5.00;99.90;;;;;;5017308;28;20177;-92
2021/10/10 00:06:51;;;;;;;10.13;6.20;;;5.00;99.90;;;;;;5017328;28;20245;-91
2021/10/10 00:09:29;;;;;;;12.10;6.80;;;4.90;99.90;;;;;;5017047;28;20326;-92
2021/10/10 00:12:10;;;;;;;8.63;6.47;;;4.90;99.90;;;;;;5031286;28;20170;-91
2021/10/10 00:14:53;;;;;;;9.03;6.67;;;4.80;99.90;;;;;;5039919;28;20189;-91
2021/10/10 00:17:42;;;;;;;13.77;7.47;;;4.80;99.90;;;;;;5039774;28;20180;-93
2021/10/10 00:20:41;;;;;;;12.60;7.13;;;4.90;99.90;;;;;;5039724;28;20198;-92
2021/10/10 00:23:14;;;;;;;11.23;6.80;;;4.80;99.90;;;;;;5039681;28;20249;-91
2021/10/10 00:25:46;;;;;;;9.43;6.90;;;4.90;99.90;;;;;;5039772;28;20162;-91
2021/10/10 00:28:24;;;;;;;12.10;6.37;;;4.80;99.90;;;;;;5039591;28;20198;-92
2021/10/10 00:30:58;;;;;;;10.87;6.63;;;4.80;99.90;;;;;;5038851;28;20229;-92
2021/10/10 00:33:35;;;;;;;7.77;6.50;;;4.80;99.90;;;;;;5039548;28;20186;-92
2021/10/10 00:36:06;;;;;;;11.57;6.87;;;4.80;99.90;;;;;;5039446;28;20184;-92
2021/10/10 00:38:39;;;;;;;10.30;7.13;;;4.90;99.90;;;;;;5039375;28;20558;-93
2021/10/10 00:41:20;;;;;;;12.27;7.57;;;4.90;99.90;;;;;;5039154;28;20198;-93
2021/10/10 00:43:47;;;;;;;10.87;7.37;;;5.10;99.90;;;;;;5039411;28;20169;-92
2021/10/10 00:46:21;;;;;;;10.57;7.40;;;5.10;99.90;;;;;;5039331;28;20166;-93
2021/10/10 00:48:55;;;;;;;10.27;7.27;;;5.10;99.90;;;;;;5038167;28;20198;-91
2021/10/10 00:51:38;;;;;;;15.40;7.67;;;5.20;99.90;;;;;;5039291;28;20177;-91
2021/10/10 00:54:05;;;;;;;15.03;7.97;;;5.20;99.90;;;;;;5039327;28;20177;-92
2021/10/10 00:56:38;;;;;;;13.93;8.37;;;5.20;99.90;;;;;;5039104;28;20177;-93
2021/10/10 00:59:21;;;;;;;10.00;7.30;;;5.20;99.90;;;;;;5039034;28;20201;-92
2021/10/10 01:01:52;;;;;;;12.53;7.27;;;5.20;99.90;;;;;;5038862;28;20198;-91
2021/10/10 01:04:25;;;;;;;11.83;6.60;;;5.20;99.90;;;;;;5039029;28;20170;-92
2021/10/10 01:10:27;;;;;;;10.17;7.00;;;5.10;99.90;;;;;;5036666;28;20213;-91
2021/10/10 01:13:19;;;;;;;10.27;7.47;;;5.10;99.90;;;;;;5019116;28;20540;-92
2021/10/10 01:16:09;;;;;;;9.00;6.60;;;4.90;99.90;;;;;;5019120;28;20174;-92
2021/10/10 01:19:22;;;;;;;10.83;6.70;;;4.80;99.90;;;;;;5018910;28;20539;-92
2021/10/10 01:22:18;;;;;;;9.17;6.40;;;4.70;99.90;;;;;;5018977;28;20744;-93
2021/10/10 01:24:46;;;;;;;8.83;6.87;;;4.50;99.90;;;;;;5018943;28;20619;-92
2021/10/10 01:27:25;;;;;;;9.60;7.03;;;4.40;99.90;;;;;;5018703;28;20167;-91
2021/10/10 01:29:55;;;;;;;9.20;6.70;;;4.30;99.90;;;;;;5018766;28;20197;-92
2021/10/10 01:32:22;;;;;;;12.77;6.53;;;4.20;99.90;;;;;;5018643;28;20222;-91
2021/10/10 01:35:07;;;;;;;8.97;6.47;;;4.30;99.90;;;;;;5019133;28;20240;-92
2021/10/10 01:37:45;;;;;;;11.10;6.90;;;4.20;99.90;;;;;;5018960;28;20179;-92
2021/10/10 01:40:17;;;;;;;18.37;6.73;;;4.10;99.90;;;;;;5018484;28;20285;-91
2021/10/10 01:42:49;;;;;;;11.40;6.87;;;4.00;99.90;;;;;;5018497;28;20569;-93
2021/10/10 01:45:25;;;;;;;9.63;6.97;;;4.00;99.90;;;;;;5018651;28;20213;-92
2021/10/10 01:47:53;;;;;;;11.20;7.00;;;4.00;99.90;;;;;;5018287;28;20649;-90
2021/10/10 01:50:20;;;;;;;12.63;6.47;;;4.00;99.90;;;;;;5018277;28;20233;-92
2021/10/10 01:52:50;;;;;;;9.87;6.60;;;4.00;99.90;;;;;;5018336;28;20229;-91
2021/10/10 01:55:26;;;;;;;8.67;6.60;;;4.00;99.90;;;;;;5018144;28;20163;-91
2021/10/10 01:58:05;;;;;;;10.90;6.07;;;4.00;99.90;;;;;;5018196;28;20634;-92
2021/10/10 02:00:38;;;;;;;10.00;6.77;;;4.00;99.90;;;;;;5018456;28;20277;-92
2021/10/10 02:03:22;;;;;;;9.73;6.57;;;3.90;99.90;;;;;;5019783;28;20163;-91
2021/10/10 02:05:47;;;;;;;10.00;6.13;;;3.90;99.90;;;;;;5018198;28;20162;-92
2021/10/10 02:08:26;;;;;;;9.83;6.67;;;3.80;99.90;;;;;;5018081;28;20204;-93
2021/10/10 02:10:53;;;;;;;9.00;6.07;;;3.80;99.90;;;;;;5017890;28;20512;-92
2021/10/10 02:13:40;;;;;;;10.70;6.77;;;3.70;99.90;;;;;;5017843;28;20527;-92
2021/10/10 02:16:14;;;;;;;8.53;5.70;;;3.70;99.90;;;;;;5018013;28;20166;-91
2021/10/10 02:18:40;;;;;;;10.53;6.00;;;3.60;99.90;;;;;;5017538;28;20205;-92
2021/10/10 02:21:06;;;;;;;9.00;6.30;;;3.60;99.90;;;;;;5017588;28;20201;-91
2021/10/10 02:23:32;;;;;;;9.33;6.60;;;3.50;99.90;;;;;;5017757;28;20262;-94
2021/10/10 02:26:15;;;;;;;12.50;6.50;;;3.50;99.90;;;;;;5017653;28;20181;-92
2021/10/10 02:28:41;;;;;;;7.30;5.63;;;3.50;99.90;;;;;;5017529;28;20240;-91
2021/10/10 02:31:09;;;;;;;7.87;6.10;;;3.40;99.90;;;;;;5310977;23;20242;-95
2021/10/10 02:33:42;;;;;;;11.00;5.97;;;3.30;99.90;;;;;;5024625;28;20187;-96
2021/10/10 02:36:09;;;;;;;9.90;6.40;;;3.20;99.90;;;;;;5005276;28;20184;-95
2021/10/10 02:38:43;;;;;;;8.20;5.70;;;3.30;99.90;;;;;;5009783;28;20196;-95
2021/10/10 02:41:10;;;;;;;8.53;5.87;;;3.30;99.90;;;;;;4993478;28;20227;-96
2021/10/10 02:44:21;;;;;;;8.93;5.87;;;3.20;99.90;;;;;;5010739;28;20171;-96
2021/10/10 02:46:48;;;;;;;10.57;5.90;;;3.20;99.90;;;;;;5026058;28;20625;-96
2021/10/10 02:49:32;;;;;;;9.17;5.73;;;3.10;99.90;;;;;;4993299;28;20183;-96
2021/10/10 02:51:58;;;;;;;11.20;5.37;;;3.10;99.90;;;;;;5015763;23;20294;-91
2021/10/10 02:54:24;;;;;;;6.40;5.13;;;3.00;99.90;;;;;;4978259;28;20175;-91
2021/10/10 02:56:50;;;;;;;7.97;5.43;;;2.90;99.90;;;;;;4978055;28;20176;-92
2021/10/10 02:59:16;;;;;;;9.83;5.70;;;2.90;99.90;;;;;;4989609;28;20235;-91
2021/10/10 03:01:41;;;;;;;7.60;5.70;;;2.90;99.90;;;;;;4997286;28;20284;-91
2021/10/10 03:04:07;;;;;;;8.77;5.87;;;2.90;99.90;;;;;;4997412;28;20612;-91
2021/10/10 03:06:33;;;;;;;7.53;5.73;;;2.90;99.90;;;;;;4997239;28;20512;-91
2021/10/10 03:08:59;;;;;;;9.33;6.20;;;2.90;99.90;;;;;;4997253;28;20195;-90
2021/10/10 03:11:27;;;;;;;8.83;6.43;;;2.90;99.90;;;;;;4996797;28;20702;-91
2021/10/10 03:13:53;;;;;;;10.37;7.43;;;2.90;99.90;;;;;;4997249;28;20199;-90
2021/10/10 03:16:19;;;;;;;8.13;6.33;;;2.90;99.90;;;;;;4997463;28;20193;-91
2021/10/10 03:18:44;;;;;;;10.97;6.73;;;2.80;99.90;;;;;;4997253;28;20203;-91
2021/10/10 03:21:10;;;;;;;11.90;6.83;;;2.80;99.90;;;;;;4997598;28;20205;-91
2021/10/10 03:23:37;;;;;;;9.77;6.47;;;2.80;99.90;;;;;;4997348;28;20260;-90
2021/10/10 03:26:03;;;;;;;11.13;6.70;;;2.80;99.90;;;;;;4997092;28;20163;-91
2021/10/10 03:28:29;;;;;;;8.83;6.33;;;2.90;99.90;;;;;;4996982;28;20205;-91
2021/10/10 03:30:55;;;;;;;10.17;7.17;;;2.90;99.90;;;;;;4997113;28;20538;-92
2021/10/10 03:33:23;;;;;;;9.60;6.80;;;2.90;99.90;;;;;;4997271;28;20205;-92
2021/10/10 03:36:15;;;;;;;10.47;7.07;;;2.80;99.90;;;;;;4997021;28;20179;-91
2021/10/10 03:38:40;;;;;;;9.50;7.07;;;2.80;99.90;;;;;;4997256;28;20210;-89
2021/10/10 03:41:24;;;;;;;10.57;7.03;;;2.70;99.90;;;;;;4997105;28;20220;-91
2021/10/10 03:43:51;;;;;;;9.83;6.93;;;2.70;99.90;;;;;;4997030;28;20635;-90
2021/10/10 03:46:17;;;;;;;11.80;7.73;;;2.60;99.90;;;;;;4996869;28;20177;-91
2021/10/10 03:49:07;;;;;;;9.27;6.87;;;2.60;99.90;;;;;;4997482;28;20210;-90
2021/10/10 03:51:54;;;;;;;9.33;6.87;;;2.60;99.90;;;;;;4996912;28;20230;-91
2021/10/10 03:57:24;;;;;;;10.93;7.33;;;2.70;99.90;;;;;;5014421;28;20284;-92
2021/10/10 03:59:57;;;;;;;12.03;7.60;;;2.70;99.90;;;;;;4996902;28;20216;-90
2021/10/10 04:02:29;;;;;;;9.70;7.17;;;2.80;99.90;;;;;;4997082;28;20262;-93
2021/10/10 04:05:16;;;;;;;11.80;7.83;;;2.90;99.90;;;;;;4996825;28;20179;-90
2021/10/10 04:07:48;;;;;;;10.87;7.30;;;3.00;99.90;;;;;;4989889;28;20682;-89
2021/10/10 04:10:22;;;;;;;9.73;7.03;;;3.00;99.90;;;;;;4997004;28;20198;-92
2021/10/10 04:12:49;;;;;;;12.70;7.90;;;2.90;99.90;;;;;;4997068;28;20175;-90
2021/10/10 04:15:17;;;;;;;10.73;7.47;;;3.00;99.90;;;;;;4996847;28;20176;-90
2021/10/10 04:17:51;;;;;;;11.93;8.17;;;3.10;99.90;;;;;;4997039;28;20615;-91
2021/10/10 04:20:25;;;;;;;10.07;7.30;;;3.10;99.90;;;;;;4996699;28;20670;-91
2021/10/10 04:23:03;;;;;;;10.90;7.83;;;3.00;99.90;;;;;;4997125;28;20540;-91
2021/10/10 04:25:35;;;;;;;11.77;7.50;;;3.00;99.90;;;;;;5000517;28;20175;-91
2021/10/10 04:28:09;;;;;;;11.63;7.53;;;2.90;99.90;;;;;;5000330;28;20172;-90
2021/10/10 04:30:35;;;;;;;11.33;7.83;;;2.90;99.90;;;;;;5000121;28;20728;-91
2021/10/10 04:33:08;;;;;;;11.50;7.30;;;2.80;99.90;;;;;;5000617;28;20263;-92
2021/10/10 04:35:35;;;;;;;8.90;7.13;;;2.70;99.90;;;;;;5000249;28;20170;-92
2021/10/10 04:38:03;;;;;;;10.57;7.50;;;2.80;99.90;;;;;;5000358;28;20190;-91
2021/10/10 04:40:37;;;;;;;11.00;7.77;;;2.70;99.90;;;;;;5000267;28;20199;-90
2021/10/10 04:43:33;;;;;;;9.57;7.33;;;2.70;99.90;;;;;;5000303;28;20258;-91
2021/10/10 04:46:07;;;;;;;10.50;7.53;;;2.50;99.90;;;;;;5000525;28;20596;-90
2021/10/10 04:48:38;;;;;;;12.53;7.43;;;2.60;99.90;;;;;;4999893;28;20226;-90
2021/10/10 04:51:15;;;;;;;13.10;7.70;;;2.60;99.90;;;;;;4999222;28;20226;-91
2021/10/10 04:53:47;;;;;;;10.60;7.70;;;2.50;99.90;;;;;;4996676;28;20300;-90
2021/10/10 04:56:21;;;;;;;10.20;7.83;;;2.50;99.90;;;;;;4980790;28;20164;-91
2021/10/10 04:58:57;;;;;;;12.50;8.27;;;2.50;99.90;;;;;;4980373;28;20205;-92
2021/10/10 05:01:33;;;;;;;11.47;7.83;;;2.50;99.90;;;;;;4979980;28;20671;-90
2021/10/10 05:04:01;;;;;;;13.60;7.80;;;2.50;99.90;;;;;;4980559;28;20230;-91
2021/10/10 05:06:37;;;;;;;10.70;7.20;;;2.50;99.90;;;;;;4980419;28;20163;-91
2021/10/10 05:09:06;;;;;;;11.57;7.80;;;2.50;99.90;;;;;;4980784;28;20244;-90
2021/10/10 05:11:32;;;;;;;12.00;7.73;;;2.50;99.90;;;;;;4980905;28;20240;-91
2021/10/10 05:13:59;;;;;;;10.97;6.93;;;2.40;99.90;;;;;;4980478;28;20173;-90
2021/10/10 05:16:37;;;;;;;10.90;7.37;;;2.40;99.90;;;;;;4979895;28;20220;-91
2021/10/10 05:19:04;;;;;;;12.03;7.83;;;2.30;99.90;;;;;;4980356;28;20198;-90
2021/10/10 05:21:31;;;;;;;13.63;8.70;;;2.40;99.90;;;;;;4979637;28;20286;-90
2021/10/10 05:23:58;;;;;;;12.07;7.23;;;2.30;99.90;;;;;;4979781;28;20164;-92
2021/10/10 05:26:29;;;;;;;12.73;7.37;;;2.30;99.90;;;;;;4980019;28;20230;-92
2021/10/10 05:29:21;;;;;;;13.17;7.53;;;2.30;99.90;;;;;;4979299;28;20216;-90
2021/10/10 05:31:50;;;;;;;10.53;7.23;;;2.40;99.90;;;;;;4979677;28;20672;-91
2021/10/10 05:34:24;;;;;;;10.43;7.57;;;2.40;99.90;;;;;;4979458;28;20171;-91
2021/10/10 05:37:02;;;;;;;10.47;7.57;;;2.30;99.90;;;;;;4979296;28;20650;-92
2021/10/10 05:39:53;;;;;;;10.67;7.70;;;2.40;99.90;;;;;;4979506;28;20212;-92
2021/10/10 05:42:34;;;;;;;11.47;6.83;;;2.40;99.90;;;;;;4979390;28;20193;-91
2021/10/10 05:45:10;;;;;;;10.87;7.63;;;2.30;99.90;;;;;;4979742;28;20165;-91
2021/10/10 05:48:05;;;;;;;11.40;7.80;;;2.30;99.90;;;;;;4980089;28;20227;-91
2021/10/10 05:50:31;;;;;;;12.60;7.23;;;2.20;99.90;;;;;;4979975;28;20259;-91
2021/10/10 05:53:07;;;;;;;14.37;7.70;;;2.10;99.90;;;;;;4993827;28;20231;-91
2021/10/10 05:56:03;;;;;;;10.20;7.40;;;2.20;99.90;;;;;;5000142;28;20172;-90
2021/10/10 05:59:08;;;;;;;10.27;6.87;;;2.20;99.90;;;;;;5000081;28;20356;-91
2021/10/10 06:01:36;;;;;;;11.50;7.90;;;2.30;99.90;;;;;;4999582;28;20202;-91
2021/10/10 06:04:16;;;;;;;13.33;7.80;;;2.20;99.90;;;;;;4999633;28;20172;-89
2021/10/10 06:06:42;;;;;;;10.97;7.20;;;2.30;99.90;;;;;;4999367;28;20589;-90
2021/10/10 06:09:14;;;;;;;10.93;7.23;;;2.30;99.90;;;;;;4998962;28;20202;-92
2021/10/10 06:11:42;;;;;;;11.20;7.53;;;2.40;99.90;;;;;;4999442;28;20205;-90
2021/10/10 06:14:17;;;;;;;12.03;7.60;;;2.40;99.90;;;;;;4999596;28;20183;-91
2021/10/10 06:16:45;;;;;;;9.43;7.10;;;2.40;99.90;;;;;;4999435;28;20201;-90
2021/10/10 06:19:40;;;;;;;12.47;7.90;;;2.60;99.90;;;;;;4998972;28;20199;-90
2021/10/10 06:22:18;;;;;;;13.10;7.50;;;2.60;99.90;;;;;;4998430;28;20709;-90
2021/10/10 06:24:44;;;;;;;10.47;7.23;;;2.60;99.90;;;;;;4998305;28;20208;-91
2021/10/10 06:27:23;;;;;;;12.70;8.60;;;2.60;99.90;;;;;;4998150;28;20174;-91
2021/10/10 06:30:07;;;;;;;11.53;7.83;;;2.70;99.90;;;;;;4998342;28;20270;-91
2021/10/10 06:32:38;;;;;;;13.43;7.60;;;2.50;99.90;;;;;;4998841;28;20163;-90
2021/10/10 06:35:20;;;;;;;10.43;7.87;;;2.40;99.90;;;;;;4998102;28;20196;-91
2021/10/10 06:37:46;;;;;;;13.83;7.60;;;2.40;99.90;;;;;;4997837;28;20163;-90
2021/10/10 06:40:27;;;;;;;11.60;7.50;;;2.50;99.90;;;;;;4997643;28;20269;-93
2021/10/10 06:42:53;;;;;;;12.97;8.00;;;2.50;99.90;;;;;;4998013;28;20178;-91
2021/10/10 06:45:29;;;;;;;12.33;7.97;;;2.60;99.90;;;;;;4997891;28;20181;-90
2021/10/10 06:48:12;;;;;;;11.40;8.13;;;2.60;99.90;;;;;;4997365;28;20175;-90
2021/10/10 06:51:03;;;;;;;11.27;7.87;;;2.60;99.90;;;;;;4998852;28;20226;-93
2021/10/10 06:53:43;;;;;;;11.67;8.30;;;2.70;99.90;;;;;;5000106;28;20226;-90
2021/10/10 06:56:37;;;;;;;11.63;7.90;;;2.80;99.90;;;;;;4999589;28;20185;-93
2021/10/10 06:59:19;;;;;;;11.07;7.43;;;2.90;99.90;;;;;;4999968;28;20210;-90
2021/10/10 07:01:47;;;;;;;12.17;8.63;;;2.90;99.90;;;;;;4999247;28;20273;-90
2021/10/10 07:04:16;;;;;;;10.97;8.53;;;2.90;99.90;;;;;;4998235;28;20203;-91
2021/10/10 07:09:39;;;;;;;18.27;11.70;;;3.00;99.90;;;;;;5017363;28;20202;-92
2021/10/10 07:12:08;;;;;;;17.83;9.90;;;3.10;99.90;;;;;;5000722;28;20225;-92
2021/10/10 07:14:35;;;;;;;13.73;9.33;;;3.10;99.90;;;;;;4985439;28;20215;-90
2021/10/10 07:17:04;;;;;;;12.13;9.20;;;3.10;99.90;;;;;;4981597;28;20275;-93
2021/10/10 07:20:15;;;;;;;12.00;8.97;;;3.20;99.90;;;;;;4978314;28;20209;-91
2021/10/10 07:25:42;;;;;;;12.10;9.27;;;3.30;99.90;;;;;;4995706;28;20167;-89
2021/10/10 07:28:19;;;;;;;14.17;9.93;;;3.40;99.90;;;;;;4977815;28;20687;-92
2021/10/10 07:30:48;;;;;;;13.80;9.93;;;3.50;99.90;;;;;;4977307;28;20291;-91
2021/10/10 07:33:26;;;;;;;15.70;9.93;;;3.70;99.90;;;;;;4978136;28;20168;-90
2021/10/10 07:36:11;;;;;;;15.50;9.23;;;3.70;99.90;;;;;;4979709;28;20180;-91
2021/10/10 07:38:40;;;;;;;15.33;9.20;;;3.90;99.90;;;;;;4977294;28;20198;-89
2021/10/10 07:41:11;;;;;;;15.10;11.00;;;4.00;99.90;;;;;;5010569;28;20199;-92
2021/10/10 07:43:50;;;;;;;11.80;8.67;;;4.20;99.90;;;;;;5012585;28;20217;-89
2021/10/10 07:46:33;;;;;;;13.97;9.50;;;4.40;99.90;;;;;;5010483;28;20270;-92
2021/10/10 07:48:59;;;;;;;13.73;10.13;;;4.60;99.90;;;;;;5013134;28;20204;-92
2021/10/10 07:51:47;;;;;;;13.37;10.17;;;4.70;99.90;;;;;;5013304;28;20642;-92
2021/10/10 07:54:20;;;;;;;14.13;10.47;;;4.90;99.90;;;;;;4995235;28;20224;-92
2021/10/10 07:56:47;;;;;;;11.33;9.07;;;5.00;99.90;;;;;;4995978;28;20175;-91
2021/10/10 07:59:17;;;;;;;15.67;11.00;;;5.10;99.90;;;;;;4998171;28;20695;-92
2021/10/10 08:01:44;;;;;;;14.83;10.63;;;5.10;99.90;;;;;;4998624;28;20215;-90
2021/10/10 08:04:25;;;;;;;14.23;10.83;;;5.30;99.90;;;;;;4997890;28;20709;-92
2021/10/10 08:07:07;;;;;;;13.90;10.00;;;5.40;99.90;;;;;;5015929;28;20183;-94
2021/10/10 08:09:34;;;;;;;18.27;11.83;;;5.50;99.90;;;;;;5000861;28;20544;-91
2021/10/10 08:12:12;;;;;;;12.83;9.53;;;5.60;99.90;;;;;;5000948;28;20175;-91
2021/10/10 08:14:40;;;;;;;15.43;10.63;;;5.70;99.90;;;;;;5000869;28;20175;-91
2021/10/10 08:17:10;;;;;;;13.80;10.63;;;5.80;99.90;;;;;;5000844;28;20182;-90
2021/10/10 08:20:01;;;;;;;12.93;9.63;;;5.90;99.90;;;;;;5018888;28;20199;-92
2021/10/10 08:22:38;;;;;;;14.50;10.30;;;5.90;99.90;;;;;;5000700;28;20298;-91
2021/10/10 08:25:16;;;;;;;14.37;10.93;;;6.10;99.90;;;;;;5001023;28;20182;-92
2021/10/10 08:27:48;;;;;;;16.10;11.20;;;6.20;99.90;;;;;;5000977;28;20233;-91
2021/10/10 08:30:16;;;;;;;16.87;10.60;;;6.30;99.90;;;;;;5002634;28;20202;-90
2021/10/10 08:33:06;;;;;;;12.87;10.03;;;6.40;99.90;;;;;;5001551;28;20623;-92
2021/10/10 08:35:40;;;;;;;13.97;10.20;;;6.50;99.90;;;;;;5001107;28;20198;-91
2021/10/10 08:38:08;;;;;;;21.83;12.13;;;6.70;99.90;;;;;;5001382;28;20179;-89
2021/10/10 08:40:34;;;;;;;16.07;10.23;;;6.80;99.90;;;;;;5001273;28;20233;-90
2021/10/10 08:43:06;;;;;;;14.57;10.37;;;6.90;99.90;;;;;;5037432;28;20599;-92
2021/10/10 08:45:47;;;;;;;14.53;10.63;;;7.00;99.90;;;;;;5021261;28;20240;-91
2021/10/10 08:48:43;;;;;;;17.53;10.53;;;7.20;99.90;;;;;;5007281;28;20286;-92
2021/10/10 08:51:11;;;;;;;16.77;11.13;;;7.30;99.90;;;;;;5000470;28;20175;-90
2021/10/10 08:53:41;;;;;;;16.40;11.07;;;7.40;99.90;;;;;;4995771;28;20216;-90
2021/10/10 08:56:18;;;;;;;14.40;9.97;;;7.40;99.90;;;;;;4999732;28;20176;-90
2021/10/10 08:58:58;;;;;;;15.00;10.60;;;7.50;99.90;;;;;;5001446;28;20199;-91
2021/10/10 09:01:43;;;;;;;14.40;10.53;;;7.60;99.90;;;;;;5000622;28;20221;-92
2021/10/10 09:04:11;;;;;;;14.37;10.50;;;7.70;99.90;;;;;;5000731;28;20225;-88
2021/10/10 09:06:43;;;;;;;15.50;10.90;;;7.80;99.90;;;;;;5000500;28;20217;-91
2021/10/10 09:12:42;;;;;;;18.10;10.67;;;8.00;99.90;;;;;;5017912;28;20162;-89
2021/10/10 09:15:26;;;;;;;16.53;10.70;;;8.20;99.90;;;;;;4999836;28;20646;-91
2021/10/10 09:18:06;;;;;;;15.23;10.73;;;8.30;99.90;;;;;;4980407;28;20604;-92
2021/10/10 09:20:44;;;;;;;15.70;10.80;;;8.40;99.90;;;;;;4980830;28;20203;-90
2021/10/10 09:23:16;;;;;;;15.00;9.93;;;8.50;99.90;;;;;;4980015;28;20164;-91
2021/10/10 09:26:29;;;;;;;15.53;10.13;;;8.60;99.90;;;;;;4979938;28;20169;-90
2021/10/10 09:29:01;;;;;;;18.13;10.33;;;8.70;99.90;;;;;;4979963;28;20258;-92
2021/10/10 09:31:34;;;;;;;14.70;9.50;;;8.80;99.90;;;;;;4979881;28;20178;-90
2021/10/10 09:34:38;;;;;;;13.47;9.93;;;8.90;99.90;;;;;;4981446;28;20172;-91
2021/10/10 09:37:21;;;;;;;11.93;9.77;;;9.00;99.90;;;;;;5015960;28;20174;-90
2021/10/10 09:39:58;;;;;;;15.00;9.87;;;9.10;99.90;;;;;;5015662;28;20793;-91
2021/10/10 09:42:56;;;;;;;12.37;9.97;;;9.20;99.90;;;;;;5016137;28;20182;-92
2021/10/10 09:45:30;;;;;;;14.30;9.70;;;9.30;99.90;;;;;;5015466;28;20188;-92
2021/10/10 09:48:07;;;;;;;12.23;9.83;;;9.40;99.90;;;;;;5015405;28;20241;-91
2021/10/10 09:50:49;;;;;;;15.40;10.87;;;9.50;99.90;;;;;;5015783;28;20174;-91
2021/10/10 09:53:38;;;;;;;13.93;9.27;;;9.60;99.90;;;;;;5018663;28;20226;-91
2021/10/10 09:56:07;;;;;;;14.97;9.63;;;9.70;99.90;;;;;;5018707;28;20642;-91
2021/10/10 09:58:44;;;;;;;13.85;9.52;;;9.80;99.90;;;;;;5018397;28;20202;-90
2021/10/10 10:01:41;;;;;;;15.57;9.65;;;9.90;99.90;;;;;;5007579;28;20230;-92
2021/10/10 10:04:13;;;;;;;14.48;9.25;;;10.00;99.90;;;;;;4998974;28;20209;-91
2021/10/10 10:07:14;;;;;;;14.35;9.35;;;10.20;99.90;;;;;;4999127;28;20179;-91
2021/10/10 10:09:59;;;;;;;11.38;8.45;;;10.30;99.90;;;;;;4998736;28;20686;-90
2021/10/10 10:12:56;;;;;;;11.50;8.50;;;10.50;99.90;;;;;;4999500;28;20178;-93
2021/10/10 10:15:34;;;;;;;11.30;8.43;;;10.60;99.90;;;;;;4998346;28;20218;-91
2021/10/10 10:18:00;;;;;;;11.32;8.63;;;10.70;99.90;;;;;;4998260;28;20225;-92
2021/10/10 10:20:46;;;;;;;13.40;9.00;;;10.70;99.90;;;;;;4998596;28;20207;-90
2021/10/10 10:23:13;;;;;;;13.05;8.60;;;10.80;99.90;;;;;;4998037;28;20171;-92
2021/10/10 10:25:41;;;;;;;12.77;9.07;;;11.00;99.90;;;;;;4998130;28;20180;-90
2021/10/10 10:28:10;;;;;;;13.80;8.57;;;11.10;99.90;;;;;;4998099;28;20673;-91
2021/10/10 10:30:38;;;;;;;15.93;8.90;;;11.10;99.90;;;;;;4997801;28;20182;-91
2021/10/10 10:33:07;;;;;;;14.18;8.02;;;11.30;99.90;;;;;;4998161;28;20168;-90
2021/10/10 10:35:44;;;;;;;12.65;8.40;;;11.40;99.90;;;;;;4998248;28;20218;-92
2021/10/10 10:38:11;;;;;;;11.43;8.65;;;11.40;99.90;;;;;;4997715;28;20210;-90
2021/10/10 10:40:41;;;;;;;11.90;9.00;;;11.50;99.90;;;;;;4997410;28;20268;-90
2021/10/10 10:43:13;;;;;;;13.73;8.35;;;11.60;99.90;;;;;;4997723;28;20168;-91
2021/10/10 10:45:45;;;;;;;13.57;8.18;;;11.60;99.90;;;;;;4997781;28;20171;-90
2021/10/10 10:48:31;;;;;;;10.30;7.97;;;11.70;99.90;;;;;;4997985;28;20199;-90
2021/10/10 10:54:33;;;;;;;12.30;8.18;;;11.90;99.90;;;;;;4997089;28;20243;-91
2021/10/10 10:57:38;;;;;;;13.65;7.85;;;12.00;99.90;;;;;;4978330;28;20172;-90
2021/10/10 11:00:09;;;;;;;13.88;7.93;;;12.00;99.90;;;;;;4979296;28;20206;-90
2021/10/10 11:03:12;;;;;;;12.80;7.88;;;12.20;99.90;;;;;;4978662;28;20238;-90
2021/10/10 11:06:00;;;;;;;12.68;7.72;;;12.30;99.90;;;;;;4996705;28;20170;-90
2021/10/10 11:08:32;;;;;;;9.05;6.97;;;12.40;99.90;;;;;;4997899;28;20198;-89
2021/10/10 11:11:04;;;;;;;10.25;6.97;;;12.40;99.90;;;;;;4998152;28;20206;-91
2021/10/10 11:13:53;;;;;;;10.35;7.05;;;12.50;99.90;;;;;;4996880;28;20174;-90
2021/10/10 11:16:41;;;;;;;10.85;6.90;;;12.60;99.90;;;;;;4998458;28;20181;-90
2021/10/10 11:19:13;;;;;;;9.68;7.03;;;12.70;99.90;;;;;;4997658;28;20203;-93
2021/10/10 11:21:53;;;;;;;12.10;6.65;;;12.80;99.90;;;;;;4997254;28;20622;-93
2021/10/10 11:24:24;;;;;;;9.52;6.60;;;12.80;99.90;;;;;;4997177;28;20171;-90
2021/10/10 11:26:52;;;;;;;10.35;6.70;;;12.90;99.40;;;;;;4997520;28;20167;-91
2021/10/10 11:29:22;;;;;;;11.98;5.90;;;13.00;99.90;;;;;;4997046;28;20245;-90
2021/10/10 11:32:01;;;;;;;9.65;6.38;;;13.00;99.90;;;;;;4997185;28;20698;-90
2021/10/10 11:34:27;;;;;;;9.85;6.13;;;13.10;99.40;;;;;;4996768;28;20210;-91
2021/10/10 11:37:02;;;;;;;11.18;6.45;;;13.10;99.30;;;;;;4997072;28;20175;-91
2021/10/10 11:39:31;;;;;;;17.08;6.20;;;13.20;99.90;;;;;;4997083;28;20205;-91
2021/10/10 11:42:08;;;;;;;10.23;6.00;;;13.30;99.90;;;;;;4997823;28;20199;-91
2021/10/10 11:44:40;;;;;;;8.60;6.00;;;13.40;99.90;;;;;;4998195;28;20163;-92
2021/10/10 11:47:22;;;;;;;8.32;5.93;;;13.50;99.90;;;;;;4997589;28;20168;-92
2021/10/10 11:50:00;;;;;;;9.13;4.85;;;13.60;99.90;;;;;;4998429;28;20199;-93
2021/10/10 11:52:40;;;;;;;8.30;5.38;;;13.60;99.90;;;;;;4998196;28;20206;-91
2021/10/10 11:58:12;;;;;;;10.35;6.00;;;13.80;98.30;;;;;;5015248;28;20170;-92
2021/10/10 12:00:39;;;;;;;8.32;5.28;;;13.90;97.90;;;;;;4997603;28;20211;-91
2021/10/10 12:03:13;;;;;;;12.65;5.72;;;14.00;98.50;;;;;;4997522;28;20168;-91
2021/10/10 12:05:45;;;;;;;9.57;5.70;;;14.10;98.90;;;;;;4997567;28;20171;-92
2021/10/10 12:08:24;;;;;;;8.27;5.20;;;14.20;98.20;;;;;;4997782;28;20195;-92
2021/10/10 12:10:52;;;;;;;9.40;5.65;;;14.30;97.10;;;;;;4997243;28;20187;-92
2021/10/10 12:13:25;;;;;;;9.88;5.05;;;14.40;97.60;;;;;;4997429;28;20616;-92
2021/10/10 12:15:59;;;;;;;9.32;5.30;;;14.50;97.70;;;;;;4996915;28;20175;-91
2021/10/10 12:18:29;;;;;;;8.50;5.03;;;14.60;96.90;;;;;;4996917;28;20201;-91
2021/10/10 12:21:19;;;;;;;7.78;5.32;;;14.70;97.70;;;;;;4996636;28;20209;-92
2021/10/10 12:23:45;;;;;;;6.68;5.05;;;14.70;96.20;;;;;;4997200;28;20163;-91
2021/10/10 12:26:26;;;;;;;11.13;5.47;;;14.80;97.20;;;;;;4997087;28;20588;-91
2021/10/10 12:29:01;;;;;;;6.90;5.13;;;14.90;96.80;;;;;;4997022;28;20650;-92
2021/10/10 12:31:28;;;;;;;10.05;5.45;;;14.90;95.60;;;;;;4997277;28;20170;-90
2021/10/10 12:34:33;;;;;;;8.32;4.93;;;14.80;94.50;;;;;;4997295;28;20172;-91
2021/10/10 12:37:01;;;;;;;8.80;4.80;;;14.70;93.90;;;;;;4997444;28;20647;-92
2021/10/10 12:39:41;;;;;;;10.07;4.75;;;14.80;94.70;;;;;;4997293;28;20203;-92
2021/10/10 12:42:18;;;;;;;8.10;4.47;;;14.70;94.70;;;;;;4998069;28;20253;-93
2021/10/10 12:45:27;;;;;;;8.45;4.45;;;14.70;92.80;;;;;;4997939;28;20241;-94
2021/10/10 12:48:04;;;;;;;7.82;4.68;;;14.60;92.70;;;;;;5001327;28;20202;-93
2021/10/10 12:50:48;;;;;;;7.88;4.50;;;14.70;93.90;;;;;;5000663;28;20191;-91
2021/10/10 12:53:26;;;;;;;6.55;4.20;;;14.70;93.50;;;;;;5000398;28;20269;-92
2021/10/10 12:56:30;;;;;;;7.78;4.75;;;14.70;92.80;;;;;;4987625;28;20198;-92
2021/10/10 12:58:57;;;;;;;8.25;4.80;;;14.80;92.20;;;;;;4981267;28;20286;-92
2021/10/10 13:01:25;;;;;;;9.52;4.50;;;14.80;92.00;;;;;;4980285;28;20206;-95
2021/10/10 13:04:38;;;;;;;6.80;3.97;;;14.90;91.80;;;;;;4980506;28;20211;-93
2021/10/10 13:07:20;;;;;;;8.35;4.65;;;15.00;92.80;;;;;;4981426;28;20259;-92
2021/10/10 13:09:55;;;;;;;7.88;4.88;;;15.00;92.10;;;;;;4981689;28;20202;-91
2021/10/10 13:12:21;;;;;;;9.70;4.35;;;15.10;91.20;;;;;;4981341;28;20706;-91
2021/10/10 13:14:52;;;;;;;11.73;4.80;;;15.10;91.50;;;;;;4981722;28;20210;-93
2021/10/10 13:17:26;;;;;;;10.43;4.75;;;15.10;92.40;;;;;;4982768;28;20172;-92
2021/10/10 13:20:29;;;;;;;6.65;4.05;;;15.10;93.00;;;;;;4982162;28;20258;-94
2021/10/10 13:23:08;;;;;;;11.55;4.80;;;15.00;92.50;;;;;;4981279;28;20218;-92
2021/10/10 13:25:47;;;;;;;6.80;4.60;;;14.90;93.10;;;;;;4981624;28;20172;-93
2021/10/10 13:28:28;;;;;;;9.68;4.45;;;14.80;93.30;;;;;;4980257;28;20199;-93
2021/10/10 13:31:00;;;;;;;8.00;4.65;;;14.70;93.00;;;;;;4981242;28;20168;-94
2021/10/10 13:33:36;;;;;;;5.68;4.20;;;14.70;93.40;;;;;;4980976;28;20172;-92
2021/10/10 13:36:04;;;;;;;6.85;4.47;;;14.70;94.00;;;;;;4980870;28;20168;-93
2021/10/10 13:38:35;;;;;;;12.25;4.80;;;14.70;93.40;;;;;;4980528;28;20192;-91
2021/10/10 13:41:08;;;;;;;12.70;5.43;;;14.60;93.70;;;;;;4980470;28;20679;-91
2021/10/10 13:43:34;;;;;;;11.10;5.18;;;14.60;93.90;;;;;;4981307;28;20168;-93
2021/10/10 13:46:07;;;;;;;8.77;4.57;;;14.60;94.80;;;;;;4980622;28;20179;-91
2021/10/10 13:48:36;;;;;;;12.23;5.30;;;14.50;95.00;;;;;;4989225;28;20285;-92
2021/10/10 13:51:32;;;;;;;10.05;4.78;;;14.50;94.50;;;;;;4999977;28;20174;-91
2021/10/10 13:54:02;;;;;;;9.13;5.18;;;14.30;94.80;;;;;;4999655;28;20226;-90